createdAt,value
2022-11-18T00:00:15.394Z,8.10
2022-11-18T00:02:43.390Z,8.00
2022-11-18T00:05:11.413Z,8.00
2022-11-18T00:07:39.473Z,8.10
2022-11-18T00:10:07.856Z,8.20
2022-11-18T00:12:54.515Z,8.30
2022-11-18T00:15:25.207Z,8.50
2022-11-18T00:17:57.282Z,8.60
2022-11-18T00:20:25.350Z,8.60
2022-11-18T00:22:53.383Z,8.60
2022-11-18T00:25:21.539Z,8.50
2022-11-18T00:27:50.831Z,8.50
2022-11-18T00:30:19.318Z,8.50
2022-11-18T00:32:47.403Z,8.50
2022-11-18T00:35:15.605Z,8.30
2022-11-18T00:37:43.607Z,8.20
2022-11-18T00:40:12.655Z,8.20
2022-11-18T00:42:51.750Z,8.10
2022-11-18T00:45:21.949Z,8.10
2022-11-18T00:47:50.042Z,8.10
2022-11-18T00:50:18.336Z,8.10
2022-11-18T00:52:46.392Z,8.10
2022-11-18T00:55:14.409Z,8.00
2022-11-18T00:57:42.765Z,8.00
2022-11-18T01:00:11.769Z,8.00
2022-11-18T01:02:41.157Z,8.00
2022-11-18T01:05:09.958Z,8.10
2022-11-18T01:07:38.182Z,8.00
2022-11-18T01:10:06.908Z,7.90
2022-11-18T01:12:54.400Z,7.80
2022-11-18T01:15:22.759Z,7.80
2022-11-18T01:17:52.210Z,7.80
2022-11-18T01:20:20.288Z,7.80
2022-11-18T01:22:48.388Z,7.90
2022-11-18T01:25:16.632Z,7.90
2022-11-18T01:27:44.774Z,8.00
2022-11-18T01:30:14.041Z,7.90
2022-11-18T01:32:42.125Z,7.90
2022-11-18T01:35:12.391Z,7.90
2022-11-18T01:37:40.871Z,7.90
2022-11-18T01:40:11.556Z,7.90
2022-11-18T01:42:39.733Z,7.90
2022-11-18T01:45:31.239Z,8.00
2022-11-18T01:48:03.832Z,7.90
2022-11-18T01:50:33.836Z,7.90
2022-11-18T01:53:06.435Z,7.80
2022-11-18T01:55:39.241Z,7.80
2022-11-18T01:58:12.166Z,7.80
2022-11-18T02:00:41.096Z,7.80
2022-11-18T02:03:09.698Z,7.80
2022-11-18T02:05:40.566Z,7.80
2022-11-18T02:08:09.521Z,7.70
2022-11-18T02:10:37.908Z,7.70
2022-11-18T02:13:07.690Z,7.70
2022-11-18T02:15:47.090Z,7.70
2022-11-18T02:18:25.611Z,7.80
2022-11-18T02:20:57.670Z,7.70
2022-11-18T02:24:04.940Z,7.80
2022-11-18T02:26:56.677Z,7.80
2022-11-18T02:29:30.352Z,7.90
2022-11-18T02:32:01.868Z,7.80
2022-11-18T02:34:41.376Z,7.70
2022-11-18T02:37:16.549Z,7.70
2022-11-18T02:39:48.425Z,7.70
2022-11-18T02:42:17.909Z,7.60
2022-11-18T02:44:53.155Z,7.70
2022-11-18T02:47:23.478Z,7.70
2022-11-18T02:49:56.293Z,7.70
2022-11-18T02:52:26.684Z,7.70
2022-11-18T02:54:56.634Z,7.80
2022-11-18T02:57:26.781Z,7.80
2022-11-18T02:59:56.649Z,7.80
2022-11-18T03:02:24.998Z,7.80
2022-11-18T03:04:56.734Z,7.80
2022-11-18T03:07:29.788Z,7.80
2022-11-18T03:09:59.816Z,7.80
2022-11-18T03:12:36.187Z,7.80
2022-11-18T03:15:17.524Z,7.80
2022-11-18T03:17:55.949Z,7.80
2022-11-18T03:20:28.180Z,7.80
2022-11-18T03:23:01.396Z,7.80
2022-11-18T03:25:35.762Z,7.80
2022-11-18T03:28:11.130Z,7.90
2022-11-18T03:30:46.803Z,7.80
2022-11-18T03:33:21.465Z,7.90
2022-11-18T03:35:52.682Z,7.80
2022-11-18T03:38:25.024Z,7.80
2022-11-18T03:41:01.038Z,7.80
2022-11-18T03:43:35.405Z,7.70
2022-11-18T03:46:09.391Z,7.80
2022-11-18T03:48:42.330Z,7.70
2022-11-18T03:51:12.798Z,7.80
2022-11-18T03:53:46.822Z,7.80
2022-11-18T03:56:18.235Z,7.80
2022-11-18T03:58:54.426Z,7.80
2022-11-18T04:01:30.678Z,7.80
2022-11-18T04:03:58.896Z,7.80
2022-11-18T04:06:32.560Z,7.70
2022-11-18T04:09:04.290Z,7.70
2022-11-18T04:11:55.708Z,7.60
2022-11-18T04:14:23.948Z,7.60
2022-11-18T04:16:54.090Z,7.50
2022-11-18T04:19:22.881Z,7.60
2022-11-18T04:21:51.450Z,7.60
2022-11-18T04:24:19.449Z,7.60
2022-11-18T04:26:47.494Z,7.60
2022-11-18T04:29:15.819Z,7.60
2022-11-18T04:31:44.259Z,7.60
2022-11-18T04:34:14.076Z,7.60
2022-11-18T04:36:42.243Z,7.50
2022-11-18T04:39:10.447Z,7.50
2022-11-18T04:41:56.380Z,7.50
2022-11-18T04:44:25.418Z,7.60
2022-11-18T04:46:53.789Z,7.70
2022-11-18T04:49:23.744Z,7.70
2022-11-18T04:51:52.606Z,7.70
2022-11-18T04:54:21.459Z,7.60
2022-11-18T04:56:50.144Z,7.60
2022-11-18T04:59:20.898Z,7.60
2022-11-18T05:01:49.760Z,7.60
2022-11-18T05:04:20.151Z,7.40
2022-11-18T05:06:49.894Z,7.30
2022-11-18T05:09:19.117Z,7.30
2022-11-18T05:12:04.641Z,7.20
2022-11-18T05:14:33.210Z,7.20
2022-11-18T05:17:02.826Z,7.20
2022-11-18T05:19:31.003Z,7.30
2022-11-18T05:22:00.841Z,7.30
2022-11-18T05:24:28.924Z,7.30
2022-11-18T05:26:56.957Z,7.30
2022-11-18T05:29:25.068Z,7.40
2022-11-18T05:31:53.081Z,7.30
2022-11-18T05:34:21.194Z,7.30
2022-11-18T05:36:49.324Z,7.30
2022-11-18T05:39:19.095Z,7.30
2022-11-18T05:42:10.016Z,7.40
2022-11-18T05:44:38.039Z,7.30
2022-11-18T05:47:06.148Z,7.30
2022-11-18T05:49:34.191Z,7.40
2022-11-18T05:52:02.364Z,7.40
2022-11-18T05:54:32.652Z,7.40
2022-11-18T05:57:00.542Z,7.40
2022-11-18T05:59:28.864Z,7.40
2022-11-18T06:02:01.870Z,7.30
2022-11-18T06:04:35.241Z,7.40
2022-11-18T06:07:08.761Z,7.30
2022-11-18T06:09:41.281Z,7.40
2022-11-18T06:12:10.517Z,7.40
2022-11-18T06:14:43.531Z,7.50
2022-11-18T06:17:17.053Z,7.50
2022-11-18T06:19:45.126Z,7.50
2022-11-18T06:22:13.597Z,7.50
2022-11-18T06:24:44.571Z,7.50
2022-11-18T06:27:13.819Z,7.60
2022-11-18T06:29:41.772Z,7.60
2022-11-18T06:32:09.811Z,7.60
2022-11-18T06:34:41.421Z,7.60
2022-11-18T06:37:16.480Z,7.70
2022-11-18T06:39:46.041Z,7.70
2022-11-18T06:42:34.357Z,7.70
2022-11-18T06:45:02.243Z,7.70
2022-11-18T06:47:30.614Z,7.70
2022-11-18T06:49:58.614Z,7.80
2022-11-18T06:52:26.649Z,7.80
2022-11-18T06:54:56.111Z,7.70
2022-11-18T06:57:24.090Z,7.80
2022-11-18T06:59:52.080Z,7.80
2022-11-18T07:02:20.189Z,7.80
2022-11-18T07:04:48.209Z,7.80
2022-11-18T07:07:16.394Z,7.70
2022-11-18T07:09:44.677Z,7.70
2022-11-18T07:12:14.153Z,7.60
2022-11-18T07:14:42.346Z,7.60
2022-11-18T07:17:10.456Z,7.60
2022-11-18T07:19:38.570Z,7.60
2022-11-18T07:22:08.067Z,7.60
2022-11-18T07:24:36.211Z,7.70
2022-11-18T07:27:04.250Z,7.70
2022-11-18T07:29:33.993Z,7.70
2022-11-18T07:32:01.987Z,7.60
2022-11-18T07:34:30.042Z,7.60
2022-11-18T07:36:58.048Z,7.70
2022-11-18T07:39:26.089Z,7.60
2022-11-18T07:41:54.094Z,7.60
2022-11-18T07:44:22.152Z,7.60
2022-11-18T07:46:51.796Z,7.60
2022-11-18T07:49:20.057Z,7.70
2022-11-18T07:51:48.294Z,7.70
2022-11-18T07:54:17.106Z,7.70
2022-11-18T07:56:45.372Z,7.80
2022-11-18T07:59:13.293Z,7.80
2022-11-18T08:01:41.444Z,7.80
2022-11-18T08:04:12.872Z,7.80
2022-11-18T08:06:41.732Z,7.80
2022-11-18T08:09:10.475Z,7.90
2022-11-18T08:11:38.521Z,7.90
2022-11-18T08:14:06.677Z,7.90
2022-11-18T08:16:34.676Z,8.00
2022-11-18T08:19:02.660Z,8.00
2022-11-18T08:21:32.428Z,8.00
2022-11-18T08:24:00.460Z,7.90
2022-11-18T08:26:28.575Z,7.90
2022-11-18T08:28:56.833Z,7.90
2022-11-18T08:31:26.563Z,7.90
2022-11-18T08:33:56.949Z,7.90
2022-11-18T08:36:27.117Z,7.90
2022-11-18T08:38:58.013Z,8.00
2022-11-18T08:41:32.684Z,8.10
2022-11-18T08:44:01.422Z,8.20
2022-11-18T08:46:29.404Z,8.20
2022-11-18T08:48:57.808Z,8.20
2022-11-18T08:51:26.556Z,8.30
2022-11-18T08:53:54.607Z,8.30
2022-11-18T08:56:25.432Z,8.30
2022-11-18T08:58:53.857Z,8.30
2022-11-18T09:01:22.059Z,8.30
2022-11-18T09:03:50.317Z,8.40
2022-11-18T09:06:21.038Z,8.30
2022-11-18T09:08:49.189Z,8.30
2022-11-18T09:11:19.405Z,8.30
2022-11-18T09:16:37.285Z,8.50
2022-11-18T09:19:24.756Z,8.50
2022-11-18T09:21:54.024Z,8.50
2022-11-18T09:24:22.197Z,8.50
2022-11-18T09:26:50.276Z,8.60
2022-11-18T09:29:19.996Z,8.70
2022-11-18T09:31:48.329Z,8.70
2022-11-18T09:34:16.601Z,8.70
2022-11-18T09:36:44.805Z,8.60
2022-11-18T09:39:13.086Z,8.60
2022-11-18T09:41:48.900Z,8.60
2022-11-18T09:44:42.409Z,8.50
2022-11-18T09:47:21.670Z,8.50
2022-11-18T09:49:50.568Z,8.50
2022-11-18T09:52:22.923Z,8.40
2022-11-18T09:54:51.557Z,8.40
2022-11-18T09:57:23.346Z,8.40
2022-11-18T09:59:53.594Z,8.30
2022-11-18T10:02:44.513Z,8.40
2022-11-18T10:05:17.671Z,8.30
2022-11-18T10:07:55.749Z,8.20
2022-11-18T10:10:32.205Z,8.20
2022-11-18T10:13:05.792Z,8.10
2022-11-18T10:15:40.378Z,8.10
2022-11-18T10:18:52.824Z,8.00
2022-11-18T10:21:18.520Z,8.00
2022-11-18T10:23:53.231Z,7.90
2022-11-18T10:26:34.719Z,8.00
2022-11-18T10:29:03.025Z,8.00
2022-11-18T10:31:32.408Z,8.00
2022-11-18T10:34:01.460Z,8.10
2022-11-18T10:36:30.905Z,8.10
2022-11-18T10:39:10.993Z,8.10
2022-11-18T10:41:42.819Z,8.10
2022-11-18T10:44:29.983Z,8.00
2022-11-18T10:47:17.418Z,8.10
2022-11-18T10:49:45.544Z,8.10
2022-11-18T10:52:14.671Z,8.20
2022-11-18T10:54:43.152Z,8.20
2022-11-18T10:57:19.428Z,8.20
2022-11-18T10:59:52.103Z,8.20
2022-11-18T11:02:21.998Z,8.20
2022-11-18T11:04:51.785Z,8.20
2022-11-18T11:07:27.131Z,8.10
2022-11-18T11:10:20.884Z,8.00
2022-11-18T11:12:54.712Z,8.00
2022-11-18T11:15:28.849Z,8.00
2022-11-18T11:18:18.345Z,8.00
2022-11-18T11:20:46.621Z,7.90
2022-11-18T11:23:22.146Z,7.90
2022-11-18T11:28:54.501Z,7.90
2022-11-18T11:31:31.003Z,7.90
2022-11-18T11:34:07.359Z,8.00
2022-11-18T11:36:45.618Z,8.10
2022-11-18T11:39:38.423Z,8.00
2022-11-18T11:42:16.396Z,8.10
2022-11-18T11:44:56.425Z,8.10
2022-11-18T11:47:48.115Z,8.20
2022-11-18T11:50:25.060Z,8.10
2022-11-18T11:53:14.950Z,8.10
2022-11-18T11:55:57.605Z,8.10
2022-11-18T11:58:47.003Z,8.20
2022-11-18T12:01:23.447Z,8.30
2022-11-18T12:03:57.051Z,8.10
2022-11-18T12:06:26.785Z,8.10
2022-11-18T12:09:03.813Z,8.20
2022-11-18T12:11:38.526Z,8.20
2022-11-18T12:14:13.810Z,8.20
2022-11-18T12:16:47.182Z,8.20
2022-11-18T12:19:17.630Z,8.10
2022-11-18T12:22:00.379Z,8.10
2022-11-18T12:24:34.123Z,8.10
2022-11-18T12:27:03.952Z,8.20
2022-11-18T12:29:41.359Z,8.20
2022-11-18T12:32:31.927Z,8.30
2022-11-18T12:35:03.574Z,8.30
2022-11-18T12:37:46.520Z,8.20
2022-11-18T12:40:46.062Z,8.20
2022-11-18T12:44:03.498Z,8.10
2022-11-18T12:46:50.502Z,8.10
2022-11-18T12:50:10.593Z,8.10
2022-11-18T12:52:53.690Z,8.20
2022-11-18T12:55:32.702Z,8.20
2022-11-18T12:58:00.920Z,8.30
2022-11-18T13:00:52.237Z,8.40
2022-11-18T13:03:29.999Z,8.50
2022-11-18T13:06:04.922Z,8.50
2022-11-18T13:08:35.472Z,8.40
2022-11-18T13:11:33.220Z,8.50
2022-11-18T13:14:20.242Z,8.50
2022-11-18T13:17:07.148Z,8.40
2022-11-18T13:19:35.263Z,8.40
2022-11-18T13:22:21.144Z,8.40
2022-11-18T13:24:52.097Z,8.30
2022-11-18T13:27:30.544Z,8.40
2022-11-18T13:30:05.191Z,8.30
2022-11-18T13:32:33.907Z,8.30
2022-11-18T13:35:12.253Z,8.30
2022-11-18T13:37:51.081Z,8.30
2022-11-18T13:40:26.951Z,8.30
2022-11-18T13:42:55.330Z,8.30
2022-11-18T13:45:28.060Z,8.10
2022-11-18T13:48:01.418Z,7.90
2022-11-18T13:50:34.613Z,7.70
2022-11-18T13:53:15.865Z,7.50
2022-11-18T13:55:50.790Z,7.50
2022-11-18T13:58:40.101Z,7.60
2022-11-18T14:01:21.719Z,7.70
2022-11-18T14:03:52.319Z,7.80
2022-11-18T14:06:31.803Z,7.80
2022-11-18T14:09:08.683Z,7.90
2022-11-18T14:11:40.793Z,8.00
2022-11-18T14:14:10.984Z,8.00
2022-11-18T14:16:40.875Z,8.10
2022-11-18T14:19:13.830Z,8.00
2022-11-18T14:21:42.167Z,8.00
2022-11-18T14:24:16.158Z,8.00
2022-11-18T14:26:45.718Z,7.90
2022-11-18T14:29:21.332Z,7.90
2022-11-18T14:32:14.324Z,8.00
2022-11-18T14:34:42.339Z,8.00
2022-11-18T14:37:13.359Z,7.90
2022-11-18T14:39:41.830Z,7.80
2022-11-18T14:42:14.412Z,7.80
2022-11-18T14:44:43.500Z,7.80
2022-11-18T14:47:28.123Z,7.90
2022-11-18T14:49:56.461Z,7.80
2022-11-18T14:52:24.409Z,7.90
2022-11-18T14:54:52.911Z,7.90
2022-11-18T14:57:22.377Z,7.80
2022-11-18T14:59:50.313Z,7.80
2022-11-18T15:02:19.467Z,7.70
2022-11-18T15:04:48.355Z,7.80
2022-11-18T15:07:23.019Z,7.80
2022-11-18T15:09:51.794Z,7.80
2022-11-18T15:12:19.846Z,7.70
2022-11-18T15:14:49.219Z,7.60
2022-11-18T15:17:20.343Z,7.50
2022-11-18T15:19:48.632Z,7.50
2022-11-18T15:22:16.743Z,7.70
2022-11-18T15:24:44.922Z,7.90
2022-11-18T15:27:12.947Z,7.80
2022-11-18T15:29:41.531Z,7.70
2022-11-18T15:32:12.214Z,7.80
2022-11-18T15:34:40.194Z,7.80
2022-11-18T15:37:08.194Z,7.80
2022-11-18T15:39:36.165Z,7.70
2022-11-18T15:42:04.171Z,7.50
2022-11-18T15:44:32.769Z,7.50
2022-11-18T15:47:01.584Z,7.50
2022-11-18T15:49:31.177Z,7.60
2022-11-18T15:51:59.845Z,7.70
2022-11-18T15:54:27.847Z,7.80
2022-11-18T15:56:55.789Z,7.80
2022-11-18T15:59:24.041Z,7.70
2022-11-18T16:01:54.248Z,7.70
2022-11-18T16:04:23.323Z,7.60
2022-11-18T16:06:53.578Z,7.50
2022-11-18T16:09:22.273Z,7.40
2022-11-18T16:12:07.989Z,7.50
2022-11-18T16:14:39.688Z,7.40
2022-11-18T16:17:07.775Z,7.50
2022-11-18T16:19:35.774Z,7.60
2022-11-18T16:22:05.196Z,7.70
2022-11-18T16:24:33.228Z,7.70
2022-11-18T16:27:04.302Z,7.50
2022-11-18T16:29:32.612Z,7.40
2022-11-18T16:31:59.527Z,7.30
2022-11-18T16:34:28.932Z,7.30
2022-11-18T16:36:59.744Z,7.20
2022-11-18T16:39:29.599Z,7.20
2022-11-18T16:42:06.711Z,7.00
2022-11-18T16:44:35.857Z,7.00
2022-11-18T16:47:09.180Z,7.00
2022-11-18T16:49:40.753Z,6.90
2022-11-18T16:52:09.623Z,6.80
2022-11-18T16:54:44.881Z,6.80
2022-11-18T16:57:14.130Z,6.90
2022-11-18T16:59:42.164Z,6.70
2022-11-18T17:02:13.473Z,6.70
2022-11-18T17:04:41.685Z,6.60
2022-11-18T17:07:09.728Z,6.60
2022-11-18T17:09:39.374Z,6.60
2022-11-18T17:12:08.191Z,6.60
2022-11-18T17:14:38.573Z,6.70
2022-11-18T17:17:06.796Z,6.70
2022-11-18T17:19:34.716Z,6.90
2022-11-18T17:22:02.675Z,6.80
2022-11-18T17:24:30.665Z,6.80
2022-11-18T17:27:00.000Z,6.80
2022-11-18T17:29:27.977Z,6.90
2022-11-18T17:31:55.877Z,6.90
2022-11-18T17:34:23.861Z,6.90
2022-11-18T17:36:51.838Z,6.90
2022-11-18T17:39:20.711Z,6.80
2022-11-18T17:42:06.070Z,6.80
2022-11-18T17:44:35.399Z,6.80
2022-11-18T17:47:03.813Z,6.70
2022-11-18T17:49:31.796Z,6.70
2022-11-18T17:52:00.102Z,6.70
2022-11-18T17:54:28.090Z,6.70
2022-11-18T17:56:56.223Z,6.70
2022-11-18T17:59:24.333Z,6.70
2022-11-18T18:01:58.875Z,6.60
2022-11-18T18:04:27.759Z,6.70
2022-11-18T18:06:56.058Z,6.70
2022-11-18T18:09:29.920Z,6.70
2022-11-18T18:11:58.900Z,6.80
2022-11-18T18:14:25.795Z,6.70
2022-11-18T18:16:55.533Z,6.70
2022-11-18T18:19:24.505Z,6.70
2022-11-18T18:21:53.182Z,6.60
2022-11-18T18:24:21.639Z,6.70
2022-11-18T18:26:50.269Z,6.70
2022-11-18T18:29:18.311Z,6.60
2022-11-18T18:31:46.295Z,6.60
2022-11-18T18:34:16.155Z,6.50
2022-11-18T18:36:44.471Z,6.50
2022-11-18T18:39:12.794Z,6.50
2022-11-18T18:41:40.753Z,6.50
2022-11-18T18:44:11.336Z,6.40
2022-11-18T18:46:40.697Z,6.40
2022-11-18T18:49:10.745Z,6.60
2022-11-18T18:51:41.540Z,6.60
2022-11-18T18:54:12.509Z,6.60
2022-11-18T18:56:41.091Z,6.50
2022-11-18T18:59:09.564Z,6.40
2022-11-18T19:01:38.991Z,6.50
2022-11-18T19:04:08.228Z,6.40
2022-11-18T19:09:27.147Z,6.50
2022-11-18T19:12:13.074Z,6.40
2022-11-18T19:14:41.368Z,6.40
2022-11-18T19:17:11.793Z,6.30
2022-11-18T19:19:58.763Z,6.30
2022-11-18T19:22:27.251Z,6.30
2022-11-18T19:24:56.764Z,6.30
2022-11-18T19:27:24.830Z,6.20
2022-11-18T19:29:52.820Z,6.20
2022-11-18T19:32:20.991Z,6.20
2022-11-18T19:34:49.392Z,6.20
2022-11-18T19:37:17.312Z,6.20
2022-11-18T19:39:45.283Z,6.20
2022-11-18T19:42:14.676Z,6.20
2022-11-18T19:44:42.726Z,6.20
2022-11-18T19:47:10.862Z,6.20
2022-11-18T19:49:38.894Z,6.20
2022-11-18T19:52:06.903Z,6.30
2022-11-18T19:54:34.843Z,6.30
2022-11-18T19:57:03.837Z,6.20
2022-11-18T19:59:33.383Z,6.10
2022-11-18T20:02:01.790Z,6.20
2022-11-18T20:04:29.774Z,6.20
2022-11-18T20:06:58.057Z,6.20
2022-11-18T20:09:26.437Z,6.10
2022-11-18T20:11:55.662Z,6.10
2022-11-18T20:14:23.744Z,6.20
2022-11-18T20:16:53.085Z,6.10
2022-11-18T20:19:21.236Z,6.10
2022-11-18T20:21:49.598Z,6.00
2022-11-18T20:24:19.487Z,5.90
2022-11-18T20:26:48.614Z,6.10
2022-11-18T20:29:17.049Z,6.10
2022-11-18T20:31:45.461Z,6.10
2022-11-18T20:34:15.582Z,6.20
2022-11-18T20:36:43.885Z,6.20
2022-11-18T20:39:15.937Z,6.00
2022-11-18T20:42:04.317Z,6.10
2022-11-18T20:44:32.709Z,6.00
2022-11-18T20:47:00.759Z,6.00
2022-11-18T20:49:30.361Z,6.00
2022-11-18T20:51:58.446Z,6.00
2022-11-18T20:54:26.641Z,5.90
2022-11-18T20:56:54.834Z,5.90
2022-11-18T20:59:22.903Z,5.80
2022-11-18T21:01:50.961Z,5.90
2022-11-18T21:04:18.892Z,5.80
2022-11-18T21:06:48.584Z,5.70
2022-11-18T21:09:17.476Z,5.70
2022-11-18T21:11:45.612Z,5.70
2022-11-18T21:14:24.082Z,5.80
2022-11-18T21:16:53.799Z,5.90
2022-11-18T21:19:22.459Z,5.90
2022-11-18T21:21:52.477Z,5.80
2022-11-18T21:24:22.750Z,5.90
2022-11-18T21:26:54.300Z,6.00
2022-11-18T21:29:22.701Z,6.00
2022-11-18T21:31:51.044Z,6.00
2022-11-18T21:34:19.370Z,6.00
2022-11-18T21:36:51.644Z,6.00
2022-11-18T21:39:23.909Z,5.90
2022-11-18T21:41:55.586Z,5.90
2022-11-18T21:44:24.229Z,5.90
2022-11-18T21:46:52.166Z,5.80
2022-11-18T21:49:20.370Z,5.80
2022-11-18T21:51:48.546Z,5.90
2022-11-18T21:54:18.142Z,5.90
2022-11-18T21:56:47.643Z,5.90
2022-11-18T21:59:15.934Z,5.90
2022-11-18T22:01:43.990Z,6.00
2022-11-18T22:04:32.739Z,6.00
2022-11-18T22:07:00.825Z,6.00
2022-11-18T22:09:34.594Z,6.00
2022-11-18T22:12:06.674Z,6.00
2022-11-18T22:14:34.695Z,6.00
2022-11-18T22:17:02.837Z,6.00
2022-11-18T22:19:31.217Z,6.10
2022-11-18T22:21:59.236Z,6.10
2022-11-18T22:24:27.828Z,6.10
2022-11-18T22:26:55.837Z,6.20
2022-11-18T22:29:26.066Z,6.20
2022-11-18T22:31:54.309Z,6.30
2022-11-18T22:34:22.316Z,6.30
2022-11-18T22:36:50.276Z,6.30
2022-11-18T22:39:18.929Z,6.30
2022-11-18T22:42:04.443Z,6.20
2022-11-18T22:44:33.872Z,6.10
2022-11-18T22:47:01.846Z,6.10
2022-11-18T22:49:29.851Z,6.00
2022-11-18T22:51:57.766Z,6.20
2022-11-18T22:54:41.178Z,6.10
2022-11-18T22:57:09.415Z,6.10
2022-11-18T22:59:38.765Z,6.10
2022-11-18T23:02:07.222Z,6.10
2022-11-18T23:04:35.242Z,6.00
2022-11-18T23:07:03.450Z,6.00
2022-11-18T23:09:31.508Z,5.90
2022-11-18T23:12:28.432Z,6.00
2022-11-18T23:14:57.753Z,6.10
2022-11-18T23:17:25.737Z,6.10
2022-11-18T23:19:53.644Z,6.20
2022-11-18T23:22:21.568Z,6.20
2022-11-18T23:24:49.891Z,6.30
2022-11-18T23:27:17.801Z,6.30
2022-11-18T23:29:46.066Z,6.30
2022-11-18T23:32:15.461Z,6.40
2022-11-18T23:34:43.386Z,6.40
2022-11-18T23:37:11.340Z,6.40
2022-11-18T23:39:39.365Z,6.30
2022-11-18T23:42:07.371Z,6.30
2022-11-18T23:44:47.458Z,6.30
2022-11-18T23:47:16.935Z,6.30
2022-11-18T23:49:44.912Z,6.20
2022-11-18T23:52:12.871Z,6.10
2022-11-18T23:54:40.798Z,6.10
2022-11-18T23:57:08.985Z,6.00
2022-11-18T23:59:36.968Z,6.10
